sensor_id;sensor_type;location;lat;lon;timestamp;pressure;altitude;pressure_sealevel;temperature;humidity
39301;BME280;25019;42.626;23.380;2022-10-15T00:00:34;94648.19;;;10.98;93.32
39301;BME280;25019;42.626;23.380;2022-10-15T00:03:00;94682.47;;;11.17;93.62
39301;BME280;25019;42.626;23.380;2022-10-15T00:05:26;94629.84;;;10.79;94.75
39301;BME280;25019;42.626;23.380;2022-10-15T00:07:52;94637.25;;;10.77;95.27
39301;BME280;25019;42.626;23.380;2022-10-15T00:10:18;94674.91;;;10.91;96.50
39301;BME280;25019;42.626;23.380;2022-10-15T00:12:44;94682.19;;;10.96;96.37
39301;BME280;25019;42.626;23.380;2022-10-15T00:15:10;94671.09;;;10.82;96.90
39301;BME280;25019;42.626;23.380;2022-10-15T00:17:36;94675.19;;;10.73;97.82
39301;BME280;25019;42.626;23.380;2022-10-15T00:20:04;94680.50;;;10.73;98.70
39301;BME280;25019;42.626;23.380;2022-10-15T00:22:30;94648.06;;;10.54;98.80
39301;BME280;25019;42.626;23.380;2022-10-15T00:24:56;94672.03;;;10.76;99.75
39301;BME280;25019;42.626;23.380;2022-10-15T00:27:22;94679.84;;;10.83;99.29
39301;BME280;25019;42.626;23.380;2022-10-15T00:29:48;94669.69;;;10.79;98.82
39301;BME280;25019;42.626;23.380;2022-10-15T00:32:16;94678.31;;;10.87;98.79
39301;BME280;25019;42.626;23.380;2022-10-15T00:34:41;94606.94;;;10.39;98.58
39301;BME280;25019;42.626;23.380;2022-10-15T00:37:08;94665.59;;;10.89;98.37
39301;BME280;25019;42.626;23.380;2022-10-15T00:39:35;94654.97;;;10.89;98.60
39301;BME280;25019;42.626;23.380;2022-10-15T00:42:01;94656.66;;;10.95;98.01
39301;BME280;25019;42.626;23.380;2022-10-15T00:52:38;94643.94;;;10.97;98.96
39301;BME280;25019;42.626;23.380;2022-10-15T00:55:27;94635.41;;;10.95;99.24
39301;BME280;25019;42.626;23.380;2022-10-15T00:57:54;94588.75;;;10.65;98.92
39301;BME280;25019;42.626;23.380;2022-10-15T01:00:23;94643.75;;;11.04;99.15
39301;BME280;25019;42.626;23.380;2022-10-15T01:02:49;94643.25;;;11.07;99.29
39301;BME280;25019;42.626;23.380;2022-10-15T01:05:16;94641.66;;;11.06;99.24
39301;BME280;25019;42.626;23.380;2022-10-15T01:07:42;94596.84;;;10.75;99.88
39301;BME280;25019;42.626;23.380;2022-10-15T01:10:09;94600.13;;;10.83;99.93
39301;BME280;25019;42.626;23.380;2022-10-15T01:15:45;94535.56;;;10.43;98.80
39301;BME280;25019;42.626;23.380;2022-10-15T01:18:14;94617.03;;;10.93;98.75
39301;BME280;25019;42.626;23.380;2022-10-15T01:20:49;94591.88;;;10.79;98.98
39301;BME280;25019;42.626;23.380;2022-10-15T01:32:27;94634.34;;;10.96;100.00
39301;BME280;25019;42.626;23.380;2022-10-15T01:37:45;94640.97;;;10.76;100.00
39301;BME280;25019;42.626;23.380;2022-10-15T01:40:37;94606.31;;;10.49;100.00
39301;BME280;25019;42.626;23.380;2022-10-15T01:43:11;94625.84;;;10.60;100.00
39301;BME280;25019;42.626;23.380;2022-10-15T01:45:52;94557.22;;;10.17;100.00
39301;BME280;25019;42.626;23.380;2022-10-15T01:48:40;94643.03;;;10.74;100.00
39301;BME280;25019;42.626;23.380;2022-10-15T01:51:09;94574.97;;;10.34;100.00
39301;BME280;25019;42.626;23.380;2022-10-15T01:53:37;94527.84;;;10.07;100.00
39301;BME280;25019;42.626;23.380;2022-10-15T01:56:11;94640.25;;;10.81;100.00
39301;BME280;25019;42.626;23.380;2022-10-15T01:58:40;94638.88;;;10.78;100.00
39301;BME280;25019;42.626;23.380;2022-10-15T02:01:07;94555.03;;;10.14;100.00
39301;BME280;25019;42.626;23.380;2022-10-15T02:03:48;94639.59;;;10.74;100.00
39301;BME280;25019;42.626;23.380;2022-10-15T02:06:38;94602.91;;;10.54;100.00
39301;BME280;25019;42.626;23.380;2022-10-15T02:09:26;94640.56;;;10.85;100.00
39301;BME280;25019;42.626;23.380;2022-10-15T02:12:09;94585.94;;;10.55;100.00
39301;BME280;25019;42.626;23.380;2022-10-15T02:17:22;94573.47;;;10.55;100.00
39301;BME280;25019;42.626;23.380;2022-10-15T02:19:56;94626.63;;;10.77;100.00
39301;BME280;25019;42.626;23.380;2022-10-15T02:22:32;94637.50;;;10.76;100.00
39301;BME280;25019;42.626;23.380;2022-10-15T02:25:07;94640.34;;;10.69;100.00
39301;BME280;25019;42.626;23.380;2022-10-15T02:27:34;94639.22;;;10.65;100.00
39301;BME280;25019;42.626;23.380;2022-10-15T02:30:05;94590.34;;;10.32;100.00
39301;BME280;25019;42.626;23.380;2022-10-15T02:32:32;94650.72;;;10.71;100.00
39301;BME280;25019;42.626;23.380;2022-10-15T02:35:00;94575.78;;;10.34;100.00
39301;BME280;25019;42.626;23.380;2022-10-15T02:37:27;94575.72;;;10.29;100.00
39301;BME280;25019;42.626;23.380;2022-10-15T02:39:54;94560.97;;;10.22;100.00
39301;BME280;25019;42.626;23.380;2022-10-15T02:42:20;94647.81;;;10.72;100.00
39301;BME280;25019;42.626;23.380;2022-10-15T02:44:47;94631.66;;;10.57;100.00
39301;BME280;25019;42.626;23.380;2022-10-15T02:47:13;94610.00;;;10.48;100.00
39301;BME280;25019;42.626;23.380;2022-10-15T02:49:39;94550.78;;;10.13;100.00
39301;BME280;25019;42.626;23.380;2022-10-15T02:52:05;94615.31;;;10.48;100.00
39301;BME280;25019;42.626;23.380;2022-10-15T02:54:31;94611.03;;;10.47;100.00
39301;BME280;25019;42.626;23.380;2022-10-15T02:56:58;94523.50;;;9.84;100.00
39301;BME280;25019;42.626;23.380;2022-10-15T02:59:24;94640.47;;;10.62;100.00
39301;BME280;25019;42.626;23.380;2022-10-15T03:01:50;94574.97;;;10.17;100.00
39301;BME280;25019;42.626;23.380;2022-10-15T03:04:16;94641.78;;;10.60;100.00
39301;BME280;25019;42.626;23.380;2022-10-15T03:06:42;94608.13;;;10.31;100.00
39301;BME280;25019;42.626;23.380;2022-10-15T03:09:08;94644.13;;;10.56;100.00
39301;BME280;25019;42.626;23.380;2022-10-15T03:11:34;94536.38;;;9.92;100.00
39301;BME280;25019;42.626;23.380;2022-10-15T03:14:00;94645.78;;;10.62;100.00
39301;BME280;25019;42.626;23.380;2022-10-15T03:16:28;94628.75;;;10.58;100.00
39301;BME280;25019;42.626;23.380;2022-10-15T03:18:53;94595.16;;;10.35;100.00
39301;BME280;25019;42.626;23.380;2022-10-15T03:21:19;94571.59;;;10.22;100.00
39301;BME280;25019;42.626;23.380;2022-10-15T03:23:46;94639.44;;;10.63;100.00
39301;BME280;25019;42.626;23.380;2022-10-15T03:26:16;94609.00;;;10.37;100.00
39301;BME280;25019;42.626;23.380;2022-10-15T03:28:42;94581.41;;;10.21;100.00
39301;BME280;25019;42.626;23.380;2022-10-15T03:31:10;94648.78;;;10.66;100.00
39301;BME280;25019;42.626;23.380;2022-10-15T03:33:37;94645.56;;;10.64;100.00
39301;BME280;25019;42.626;23.380;2022-10-15T03:36:03;94641.00;;;10.59;100.00
39301;BME280;25019;42.626;23.380;2022-10-15T03:38:30;94586.94;;;10.19;100.00
39301;BME280;25019;42.626;23.380;2022-10-15T03:40:58;94647.66;;;10.45;100.00
39301;BME280;25019;42.626;23.380;2022-10-15T03:43:34;94633.88;;;10.31;100.00
39301;BME280;25019;42.626;23.380;2022-10-15T03:46:04;94635.06;;;10.23;100.00
39301;BME280;25019;42.626;23.380;2022-10-15T03:48:32;94621.31;;;10.09;100.00
39301;BME280;25019;42.626;23.380;2022-10-15T03:50:57;94651.22;;;10.22;100.00
39301;BME280;25019;42.626;23.380;2022-10-15T03:53:23;94650.44;;;10.21;100.00
39301;BME280;25019;42.626;23.380;2022-10-15T03:55:49;94644.22;;;10.15;100.00
39301;BME280;25019;42.626;23.380;2022-10-15T03:58:15;94644.47;;;10.14;100.00
39301;BME280;25019;42.626;23.380;2022-10-15T04:00:48;94644.28;;;10.03;100.00
39301;BME280;25019;42.626;23.380;2022-10-15T04:03:14;94651.91;;;10.00;100.00
39301;BME280;25019;42.626;23.380;2022-10-15T04:05:40;94655.59;;;9.99;100.00
39301;BME280;25019;42.626;23.380;2022-10-15T04:08:09;94655.38;;;10.00;100.00
39301;BME280;25019;42.626;23.380;2022-10-15T04:10:39;94656.75;;;10.03;100.00
39301;BME280;25019;42.626;23.380;2022-10-15T04:13:05;94606.03;;;9.70;100.00
39301;BME280;25019;42.626;23.380;2022-10-15T04:15:32;94611.25;;;9.65;100.00
39301;BME280;25019;42.626;23.380;2022-10-15T04:18:03;94654.00;;;9.98;100.00
39301;BME280;25019;42.626;23.380;2022-10-15T04:20:29;94533.59;;;9.24;100.00
39301;BME280;25019;42.626;23.380;2022-10-15T04:23:07;94653.09;;;9.92;100.00
39301;BME280;25019;42.626;23.380;2022-10-15T04:25:35;94639.00;;;9.74;100.00
39301;BME280;25019;42.626;23.380;2022-10-15T04:28:01;94523.41;;;9.04;100.00
39301;BME280;25019;42.626;23.380;2022-10-15T04:30:27;94625.06;;;9.67;100.00
39301;BME280;25019;42.626;23.380;2022-10-15T04:32:57;94602.19;;;9.49;100.00
39301;BME280;25019;42.626;23.380;2022-10-15T04:35:24;94606.44;;;9.50;100.00
39301;BME280;25019;42.626;23.380;2022-10-15T04:37:57;94562.16;;;9.22;100.00
39301;BME280;25019;42.626;23.380;2022-10-15T04:40:25;94662.81;;;9.86;100.00
39301;BME280;25019;42.626;23.380;2022-10-15T04:42:51;94651.53;;;9.79;100.00
39301;BME280;25019;42.626;23.380;2022-10-15T04:45:17;94656.84;;;9.79;100.00
39301;BME280;25019;42.626;23.380;2022-10-15T04:47:43;94649.38;;;9.76;100.00
39301;BME280;25019;42.626;23.380;2022-10-15T04:50:12;94667.66;;;9.89;100.00
39301;BME280;25019;42.626;23.380;2022-10-15T04:53:10;94604.03;;;9.49;100.00
39301;BME280;25019;42.626;23.380;2022-10-15T04:55:38;94648.56;;;9.76;100.00
39301;BME280;25019;42.626;23.380;2022-10-15T04:58:04;94678.22;;;10.01;100.00
39301;BME280;25019;42.626;23.380;2022-10-15T05:00:30;94679.69;;;10.09;100.00
39301;BME280;25019;42.626;23.380;2022-10-15T05:03:31;94645.38;;;9.90;100.00
39301;BME280;25019;42.626;23.380;2022-10-15T05:06:28;94674.69;;;10.13;100.00
39301;BME280;25019;42.626;23.380;2022-10-15T05:09:03;94630.91;;;9.81;100.00
39301;BME280;25019;42.626;23.380;2022-10-15T05:11:30;94684.22;;;10.26;100.00
39301;BME280;25019;42.626;23.380;2022-10-15T05:13:59;94613.69;;;9.84;100.00
39301;BME280;25019;42.626;23.380;2022-10-15T05:16:27;94668.19;;;10.20;100.00
39301;BME280;25019;42.626;23.380;2022-10-15T05:18:57;94600.31;;;9.79;100.00
39301;BME280;25019;42.626;23.380;2022-10-15T05:21:23;94682.22;;;10.33;100.00
39301;BME280;25019;42.626;23.380;2022-10-15T05:23:53;94696.28;;;10.45;100.00
39301;BME280;25019;42.626;23.380;2022-10-15T05:26:39;94647.94;;;10.14;100.00
39301;BME280;25019;42.626;23.380;2022-10-15T05:29:05;94656.88;;;10.25;100.00
39301;BME280;25019;42.626;23.380;2022-10-15T05:31:31;94697.47;;;10.55;100.00
39301;BME280;25019;42.626;23.380;2022-10-15T05:34:14;94698.91;;;10.62;100.00
39301;BME280;25019;42.626;23.380;2022-10-15T05:36:45;94678.56;;;10.51;100.00
39301;BME280;25019;42.626;23.380;2022-10-15T05:39:13;94607.31;;;10.14;100.00
39301;BME280;25019;42.626;23.380;2022-10-15T05:41:41;94608.44;;;10.18;100.00
39301;BME280;25019;42.626;23.380;2022-10-15T05:44:07;94707.53;;;10.87;100.00
39301;BME280;25019;42.626;23.380;2022-10-15T05:46:33;94646.91;;;10.49;100.00
39301;BME280;25019;42.626;23.380;2022-10-15T05:49:03;94702.31;;;10.92;100.00
39301;BME280;25019;42.626;23.380;2022-10-15T05:51:39;94667.03;;;10.62;100.00
39301;BME280;25019;42.626;23.380;2022-10-15T05:54:10;94700.34;;;10.87;100.00
39301;BME280;25019;42.626;23.380;2022-10-15T05:56:36;94730.88;;;11.02;100.00
39301;BME280;25019;42.626;23.380;2022-10-15T05:59:02;94707.22;;;11.00;100.00
39301;BME280;25019;42.626;23.380;2022-10-15T06:01:29;94722.91;;;11.19;100.00
39301;BME280;25019;42.626;23.380;2022-10-15T06:03:57;94721.97;;;11.30;100.00
39301;BME280;25019;42.626;23.380;2022-10-15T06:06:25;94732.63;;;11.30;100.00
39301;BME280;25019;42.626;23.380;2022-10-15T06:08:52;94719.09;;;11.32;100.00
39301;BME280;25019;42.626;23.380;2022-10-15T06:11:18;94651.00;;;10.91;100.00
39301;BME280;25019;42.626;23.380;2022-10-15T06:13:45;94732.44;;;11.54;100.00
39301;BME280;25019;42.626;23.380;2022-10-15T06:16:13;94736.25;;;11.63;100.00
39301;BME280;25019;42.626;23.380;2022-10-15T06:18:39;94723.78;;;11.64;100.00
39301;BME280;25019;42.626;23.380;2022-10-15T06:21:06;94733.97;;;11.72;100.00
39301;BME280;25019;42.626;23.380;2022-10-15T06:23:32;94680.16;;;11.43;100.00
39301;BME280;25019;42.626;23.380;2022-10-15T06:26:07;94744.72;;;11.99;100.00
39301;BME280;25019;42.626;23.380;2022-10-15T06:28:33;94668.75;;;11.69;100.00
39301;BME280;25019;42.626;23.380;2022-10-15T06:30:59;94686.28;;;11.88;100.00
39301;BME280;25019;42.626;23.380;2022-10-15T06:33:28;94728.91;;;12.15;100.00
39301;BME280;25019;42.626;23.380;2022-10-15T06:35:59;94747.22;;;12.34;99.44
39301;BME280;25019;42.626;23.380;2022-10-15T06:38:24;94733.88;;;12.06;99.07
39301;BME280;25019;42.626;23.380;2022-10-15T06:40:50;94698.59;;;11.72;99.38
39301;BME280;25019;42.626;23.380;2022-10-15T06:43:16;94742.63;;;12.02;99.40
39301;BME280;25019;42.626;23.380;2022-10-15T06:45:41;94760.06;;;12.14;99.54
39301;BME280;25019;42.626;23.380;2022-10-15T06:48:17;94755.25;;;12.11;99.68
39301;BME280;25019;42.626;23.380;2022-10-15T06:50:42;94754.47;;;12.16;99.03
39301;BME280;25019;42.626;23.380;2022-10-15T06:53:08;94758.19;;;12.15;98.78
39301;BME280;25019;42.626;23.380;2022-10-15T06:55:34;94697.53;;;11.73;98.52
39301;BME280;25019;42.626;23.380;2022-10-15T06:58:00;94694.13;;;11.77;98.05
39301;BME280;25019;42.626;23.380;2022-10-15T07:00:27;94704.59;;;11.84;97.69
39301;BME280;25019;42.626;23.380;2022-10-15T07:02:53;94687.94;;;11.72;97.85
39301;BME280;25019;42.626;23.380;2022-10-15T07:05:19;94762.66;;;12.32;96.64
39301;BME280;25019;42.626;23.380;2022-10-15T07:07:55;94673.88;;;11.76;95.80
39301;BME280;25019;42.626;23.380;2022-10-15T07:10:23;94691.78;;;12.03;94.80
39301;BME280;25019;42.626;23.380;2022-10-15T07:12:50;94758.19;;;12.37;94.69
39301;BME280;25019;42.626;23.380;2022-10-15T07:15:16;94687.50;;;12.02;92.81
39301;BME280;25019;42.626;23.380;2022-10-15T07:17:49;94750.09;;;12.54;91.80
39301;BME280;25019;42.626;23.380;2022-10-15T07:20:16;94762.50;;;12.71;90.75
39301;BME280;25019;42.626;23.380;2022-10-15T07:22:42;94721.94;;;12.36;88.98
39301;BME280;25019;42.626;23.380;2022-10-15T07:25:08;94699.53;;;12.32;89.25
39301;BME280;25019;42.626;23.380;2022-10-15T07:27:35;94749.66;;;12.63;89.24
39301;BME280;25019;42.626;23.380;2022-10-15T07:30:01;94768.69;;;12.77;88.08
39301;BME280;25019;42.626;23.380;2022-10-15T07:32:27;94710.00;;;12.39;88.09
39301;BME280;25019;42.626;23.380;2022-10-15T07:34:53;94705.53;;;12.44;88.23
39301;BME280;25019;42.626;23.380;2022-10-15T07:37:18;94759.31;;;12.74;88.89
39301;BME280;25019;42.626;23.380;2022-10-15T07:39:44;94708.84;;;12.29;87.66
39301;BME280;25019;42.626;23.380;2022-10-15T07:42:10;94678.91;;;11.95;88.58
39301;BME280;25019;42.626;23.380;2022-10-15T07:44:37;94725.22;;;11.94;89.79
39301;BME280;25019;42.626;23.380;2022-10-15T07:47:08;94769.38;;;12.39;89.61
39301;BME280;25019;42.626;23.380;2022-10-15T07:49:37;94745.16;;;12.41;89.26
39301;BME280;25019;42.626;23.380;2022-10-15T07:52:02;94768.03;;;12.97;87.23
39301;BME280;25019;42.626;23.380;2022-10-15T07:54:31;94751.72;;;13.21;86.04
39301;BME280;25019;42.626;23.380;2022-10-15T07:56:57;94771.19;;;13.59;83.40
39301;BME280;25019;42.626;23.380;2022-10-15T07:59:23;94769.19;;;13.87;81.53
39301;BME280;25019;42.626;23.380;2022-10-15T08:01:48;94764.28;;;14.21;79.36
39301;BME280;25019;42.626;23.380;2022-10-15T08:04:16;94768.09;;;14.46;77.46
39301;BME280;25019;42.626;23.380;2022-10-15T08:06:43;94773.44;;;14.41;75.70
39301;BME280;25019;42.626;23.380;2022-10-15T08:09:09;94775.28;;;14.41;74.72
39301;BME280;25019;42.626;23.380;2022-10-15T08:11:35;94738.88;;;14.14;74.61
39301;BME280;25019;42.626;23.380;2022-10-15T08:14:01;94724.66;;;13.92;74.70
39301;BME280;25019;42.626;23.380;2022-10-15T08:16:28;94697.66;;;13.78;72.40
39301;BME280;25019;42.626;23.380;2022-10-15T08:18:57;94770.69;;;14.20;72.36
39301;BME280;25019;42.626;23.380;2022-10-15T08:21:23;94767.41;;;14.03;72.36
39301;BME280;25019;42.626;23.380;2022-10-15T08:23:49;94682.63;;;13.19;71.22
39301;BME280;25019;42.626;23.380;2022-10-15T08:26:15;94696.63;;;13.37;71.86
39301;BME280;25019;42.626;23.380;2022-10-15T08:28:43;94760.94;;;13.88;72.92
39301;BME280;25019;42.626;23.380;2022-10-15T08:31:09;94756.41;;;13.89;72.75
39301;BME280;25019;42.626;23.380;2022-10-15T08:33:38;94755.09;;;13.91;75.30
39301;BME280;25019;42.626;23.380;2022-10-15T08:36:04;94706.63;;;13.62;72.43
39301;BME280;25019;42.626;23.380;2022-10-15T08:38:31;94708.88;;;13.91;73.33
39301;BME280;25019;42.626;23.380;2022-10-15T08:40:59;94750.47;;;14.45;72.25
39301;BME280;25019;42.626;23.380;2022-10-15T08:43:37;94741.41;;;14.67;71.38
39301;BME280;25019;42.626;23.380;2022-10-15T08:46:22;94697.81;;;14.46;70.62
39301;BME280;25019;42.626;23.380;2022-10-15T08:48:54;94757.22;;;14.94;70.41
39301;BME280;25019;42.626;23.380;2022-10-15T08:51:23;94750.53;;;15.07;69.84
39301;BME280;25019;42.626;23.380;2022-10-15T08:53:53;94700.03;;;14.85;68.45
39301;BME280;25019;42.626;23.380;2022-10-15T08:56:29;94752.69;;;15.26;67.52
39301;BME280;25019;42.626;23.380;2022-10-15T09:02:11;94757.75;;;14.76;67.36
39301;BME280;25019;42.626;23.380;2022-10-15T09:04:47;94691.03;;;14.02;68.02
39301;BME280;25019;42.626;23.380;2022-10-15T09:10:05;94631.66;;;13.58;67.29
39301;BME280;25019;42.626;23.380;2022-10-15T09:15:16;94695.63;;;14.17;68.10
39301;BME280;25019;42.626;23.380;2022-10-15T09:17:44;94752.06;;;14.46;66.08
39301;BME280;25019;42.626;23.380;2022-10-15T09:20:17;94756.09;;;14.54;66.39
39301;BME280;25019;42.626;23.380;2022-10-15T09:22:50;94755.03;;;14.65;66.44
39301;BME280;25019;42.626;23.380;2022-10-15T09:25:21;94762.53;;;14.63;66.89
39301;BME280;25019;42.626;23.380;2022-10-15T09:27:50;94692.69;;;14.23;65.69
39301;BME280;25019;42.626;23.380;2022-10-15T09:30:38;94748.41;;;14.89;63.05
39301;BME280;25019;42.626;23.380;2022-10-15T09:33:14;94736.91;;;14.88;63.17
39301;BME280;25019;42.626;23.380;2022-10-15T09:44:16;94727.25;;;15.23;59.66
39301;BME280;25019;42.626;23.380;2022-10-15T09:46:49;94721.38;;;15.42;58.98
39301;BME280;25019;42.626;23.380;2022-10-15T09:49:17;94728.81;;;15.55;58.81
39301;BME280;25019;42.626;23.380;2022-10-15T09:52:06;94736.31;;;15.64;58.70
39301;BME280;25019;42.626;23.380;2022-10-15T09:54:47;94735.81;;;15.36;56.73
39301;BME280;25019;42.626;23.380;2022-10-15T09:57:18;94735.00;;;15.51;57.69
39301;BME280;25019;42.626;23.380;2022-10-15T10:00:07;94726.13;;;15.61;58.64
39301;BME280;25019;42.626;23.380;2022-10-15T10:02:39;94721.53;;;15.77;58.75
39301;BME280;25019;42.626;23.380;2022-10-15T10:05:38;94727.38;;;15.99;55.85
39301;BME280;25019;42.626;23.380;2022-10-15T10:08:13;94727.53;;;16.29;55.86
39301;BME280;25019;42.626;23.380;2022-10-15T10:10:41;94730.97;;;16.35;56.14
39301;BME280;25019;42.626;23.380;2022-10-15T10:13:22;94688.53;;;16.02;54.87
39301;BME280;25019;42.626;23.380;2022-10-15T10:15:51;94734.97;;;16.32;56.44
39301;BME280;25019;42.626;23.380;2022-10-15T10:18:19;94713.78;;;16.41;54.64
39301;BME280;25019;42.626;23.380;2022-10-15T10:23:22;94710.97;;;16.61;53.35
39301;BME280;25019;42.626;23.380;2022-10-15T10:25:48;94673.28;;;16.42;52.56
39301;BME280;25019;42.626;23.380;2022-10-15T10:28:18;94694.81;;;16.72;52.67
39301;BME280;25019;42.626;23.380;2022-10-15T10:33:28;94720.59;;;17.07;53.23
39301;BME280;25019;42.626;23.380;2022-10-15T10:35:55;94652.00;;;16.56;53.11
39301;BME280;25019;42.626;23.380;2022-10-15T10:38:33;94721.31;;;16.78;53.07
39301;BME280;25019;42.626;23.380;2022-10-15T10:41:04;94699.72;;;16.59;53.32
39301;BME280;25019;42.626;23.380;2022-10-15T10:43:34;94721.00;;;16.40;53.80
39301;BME280;25019;42.626;23.380;2022-10-15T10:46:04;94662.16;;;15.59;54.18
39301;BME280;25019;42.626;23.380;2022-10-15T10:48:42;94727.91;;;16.01;54.43
39301;BME280;25019;42.626;23.380;2022-10-15T10:53:47;94716.13;;;15.97;54.20
39301;BME280;25019;42.626;23.380;2022-10-15T10:56:16;94666.94;;;15.67;54.17
39301;BME280;25019;42.626;23.380;2022-10-15T10:58:44;94680.09;;;15.64;54.47
39301;BME280;25019;42.626;23.380;2022-10-15T11:01:12;94702.56;;;15.68;54.62
39301;BME280;25019;42.626;23.380;2022-10-15T11:03:43;94713.78;;;15.75;54.96
39301;BME280;25019;42.626;23.380;2022-10-15T11:06:35;94718.09;;;15.71;54.02
39301;BME280;25019;42.626;23.380;2022-10-15T11:12:13;94717.56;;;15.69;55.39
39301;BME280;25019;42.626;23.380;2022-10-15T11:15:02;94624.28;;;15.16;55.26
39301;BME280;25019;42.626;23.380;2022-10-15T11:17:47;94705.63;;;16.06;55.30
39301;BME280;25019;42.626;23.380;2022-10-15T11:20:33;94711.47;;;16.18;54.82
39301;BME280;25019;42.626;23.380;2022-10-15T11:34:32;94700.78;;;16.13;53.04
39301;BME280;25019;42.626;23.380;2022-10-15T11:42:18;94629.88;;;15.95;53.84
39301;BME280;25019;42.626;23.380;2022-10-15T11:47:46;94690.38;;;16.57;52.96
39301;BME280;25019;42.626;23.380;2022-10-15T11:53:57;94696.09;;;16.80;51.97
39301;BME280;25019;42.626;23.380;2022-10-15T11:56:35;94645.34;;;16.54;52.50
39301;BME280;25019;42.626;23.380;2022-10-15T12:01:46;94644.19;;;16.60;52.62
39301;BME280;25019;42.626;23.380;2022-10-15T12:06:56;94639.88;;;16.64;52.52
39301;BME280;25019;42.626;23.380;2022-10-15T12:09:31;94688.66;;;17.06;51.96
39301;BME280;25019;42.626;23.380;2022-10-15T12:12:15;94700.09;;;17.17;51.56
39301;BME280;25019;42.626;23.380;2022-10-15T12:17:59;94708.44;;;17.15;51.41
39301;BME280;25019;42.626;23.380;2022-10-15T12:20:26;94631.31;;;16.62;51.88
39301;BME280;25019;42.626;23.380;2022-10-15T12:22:56;94587.56;;;16.37;51.96
39301;BME280;25019;42.626;23.380;2022-10-15T12:30:40;94674.47;;;16.66;52.77
39301;BME280;25019;42.626;23.380;2022-10-15T12:33:35;94701.34;;;16.90;51.92
39301;BME280;25019;42.626;23.380;2022-10-15T12:36:06;94611.13;;;16.00;51.53
39301;BME280;25019;42.626;23.380;2022-10-15T12:38:42;94605.50;;;16.02;52.58
39301;BME280;25019;42.626;23.380;2022-10-15T12:41:16;94701.00;;;16.67;52.54
39301;BME280;25019;42.626;23.380;2022-10-15T12:43:52;94699.44;;;16.61;51.87
39301;BME280;25019;42.626;23.380;2022-10-15T12:46:36;94679.47;;;16.43;52.52
39301;BME280;25019;42.626;23.380;2022-10-15T12:51:54;94645.09;;;16.05;53.43
39301;BME280;25019;42.626;23.380;2022-10-15T12:54:35;94696.34;;;16.38;53.52
39301;BME280;25019;42.626;23.380;2022-10-15T12:59:58;94658.94;;;16.23;53.95
39301;BME280;25019;42.626;23.380;2022-10-15T13:05:05;94695.22;;;16.50;53.63
39301;BME280;25019;42.626;23.380;2022-10-15T13:07:34;94700.97;;;16.27;54.11
39301;BME280;25019;42.626;23.380;2022-10-15T13:10:03;94588.91;;;15.34;54.28
39301;BME280;25019;42.626;23.380;2022-10-15T13:12:29;94703.44;;;16.18;54.37
39301;BME280;25019;42.626;23.380;2022-10-15T13:15:01;94652.69;;;15.82;54.31
39301;BME280;25019;42.626;23.380;2022-10-15T13:17:29;94709.38;;;16.10;54.74
39301;BME280;25019;42.626;23.380;2022-10-15T13:20:07;94709.44;;;15.95;55.44
39301;BME280;25019;42.626;23.380;2022-10-15T13:22:45;94693.09;;;15.96;55.65
39301;BME280;25019;42.626;23.380;2022-10-15T13:25:15;94694.38;;;16.04;55.64
39301;BME280;25019;42.626;23.380;2022-10-15T13:27:41;94630.59;;;15.56;55.44
39301;BME280;25019;42.626;23.380;2022-10-15T13:32:37;94693.59;;;16.03;55.25
39301;BME280;25019;42.626;23.380;2022-10-15T13:35:14;94664.50;;;15.76;54.77
39301;BME280;25019;42.626;23.380;2022-10-15T13:37:42;94693.91;;;16.02;55.25
39301;BME280;25019;42.626;23.380;2022-10-15T13:40:23;94683.13;;;16.07;55.26
39301;BME280;25019;42.626;23.380;2022-10-15T13:43:02;94694.47;;;15.88;55.53
39301;BME280;25019;42.626;23.380;2022-10-15T13:45:29;94696.88;;;15.85;55.90
39301;BME280;25019;42.626;23.380;2022-10-15T13:47:55;94678.50;;;15.52;56.52
39301;BME280;25019;42.626;23.380;2022-10-15T13:50:26;94704.78;;;15.35;56.90
39301;BME280;25019;42.626;23.380;2022-10-15T13:55:35;94692.69;;;15.53;57.39
39301;BME280;25019;42.626;23.380;2022-10-15T13:58:24;94686.88;;;15.30;57.91
39301;BME280;25019;42.626;23.380;2022-10-15T14:00:52;94637.16;;;14.93;57.57
39301;BME280;25019;42.626;23.380;2022-10-15T14:03:22;94693.56;;;15.22;57.42
39301;BME280;25019;42.626;23.380;2022-10-15T14:05:50;94696.25;;;15.12;57.61
39301;BME280;25019;42.626;23.380;2022-10-15T14:08:31;94696.78;;;14.98;58.55
39301;BME280;25019;42.626;23.380;2022-10-15T14:10:57;94694.66;;;14.95;57.87
39301;BME280;25019;42.626;23.380;2022-10-15T14:13:25;94705.09;;;15.02;58.02
39301;BME280;25019;42.626;23.380;2022-10-15T14:15:59;94643.84;;;14.64;57.56
39301;BME280;25019;42.626;23.380;2022-10-15T14:18:30;94692.50;;;15.03;58.21
39301;BME280;25019;42.626;23.380;2022-10-15T14:20:57;94670.06;;;14.78;58.99
39301;BME280;25019;42.626;23.380;2022-10-15T14:23:24;94685.84;;;14.74;59.53
39301;BME280;25019;42.626;23.380;2022-10-15T14:26:02;94644.09;;;14.32;59.83
39301;BME280;25019;42.626;23.380;2022-10-15T14:28:30;94622.94;;;14.09;60.36
39301;BME280;25019;42.626;23.380;2022-10-15T14:30:57;94678.56;;;14.44;60.65
39301;BME280;25019;42.626;23.380;2022-10-15T14:36:29;94683.09;;;14.28;61.92
39301;BME280;25019;42.626;23.380;2022-10-15T14:39:17;94679.31;;;14.23;62.00
39301;BME280;25019;42.626;23.380;2022-10-15T14:42:00;94659.28;;;14.05;62.25
39301;BME280;25019;42.626;23.380;2022-10-15T14:44:46;94638.13;;;13.83;62.77
39301;BME280;25019;42.626;23.380;2022-10-15T14:47:24;94689.22;;;14.18;62.63
39301;BME280;25019;42.626;23.380;2022-10-15T14:49:54;94624.50;;;13.74;63.05
39301;BME280;25019;42.626;23.380;2022-10-15T14:52:21;94691.06;;;14.12;63.27